Date,TemperatureHighF,TemperatureAvgF,TemperatureLowF,DewpointHighF,DewpointAvgF,DewpointLowF,HumidityHigh,HumidityAvg,HumidityLow,PressureMaxIn,PressureMinIn,WindSpeedMaxMPH,WindSpeedAvgMPH,GustSpeedMaxMPH,PrecipitationSumIn
2013-1-1,47.6,41.8,34.6,47.0,39.3,26.2,99,91,60,30.15,29.97,3,0,3,0.34
2013-1-2,43.4,37.6,33.6,42.5,35.5,32.2,99,92,81,30.15,29.93,12,1,12,0.02
2013-1-3,36.8,32.6,26.9,34.9,30.3,24.6,98,91,75,30.33,30.10,10,0,11,0.00
2013-1-4,39.2,29.3,24.3,24.7,21.4,17.0,91,74,43,30.43,30.33,14,1,14,0.00
2013-1-5,50.3,34.9,22.8,32.0,22.6,15.9,87,64,27,30.45,30.25,4,0,6,0.00
2013-1-6,45.4,37.7,33.8,36.3,32.6,28.9,92,82,67,30.26,30.07,7,1,11,0.00
2013-1-7,52.9,36.9,25.7,30.3,25.5,19.2,92,67,28,30.42,30.24,12,1,12,0.00
2013-1-8,55.4,42.5,32.1,44.0,31.9,18.9,88,67,47,30.45,30.33,9,1,9,0.00
2013-1-9,53.1,47.9,41.7,50.6,45.8,40.1,98,93,86,30.47,30.36,4,0,4,0.00
2013-1-10,64.7,54.3,48.6,53.1,49.6,46.8,97,85,64,30.48,30.26,13,1,13,0.00
2013-1-11,58.2,55.5,52.2,56.3,52.8,47.8,95,91,82,30.27,30.07,20,2,20,0.02
2013-1-12,71.7,61.8,57.1,60.5,56.5,53.8,95,84,59,30.14,30.02,13,1,13,0.01
2013-1-13,68.2,61.0,56.3,56.7,54.3,52.1,92,79,63,30.05,29.96,13,2,13,0.00
2013-1-14,59.2,52.5,43.7,57.3,51.7,43.2,99,97,91,30.16,29.97,14,0,14,2.48
2013-1-15,54.1,51.4,43.5,53.8,50.6,43.0,99,97,92,30.11,29.95,10,1,10,1.11
2013-1-16,60.2,53.3,50.2,54.9,51.4,48.7,99,93,76,29.99,29.88,10,0,10,0.34
2013-1-17,50.1,40.2,31.1,49.8,39.6,29.4,99,98,92,30.22,29.77,13,1,13,2.01
2013-1-18,44.9,32.8,25.2,34.1,27.7,23.4,95,82,54,30.54,30.22,9,1,9,0.02
2013-1-19,53.9,39.9,29.8,31.5,25.8,12.7,86,61,21,30.49,30.18,5,1,5,0.00
2013-1-20,52.7,41.9,34.8,34.0,27.9,16.2,76,58,40,30.18,30.08,15,1,15,0.00
2013-1-21,47.1,36.4,25.8,30.2,22.4,9.6,85,58,36,30.12,30.00,16,1,16,0.00
2013-1-22,30.0,21.9,15.8,12.3,2.2,-8.2,63,44,20,30.33,30.07,17,2,17,0.00
2013-1-23,41.9,29.3,21.2,27.2,14.6,0.3,72,54,39,30.40,30.13,14,1,14,0.00
2013-1-24,40.2,30.9,22.4,31.3,16.0,3.2,74,55,30,30.40,30.08,20,2,20,0.00
2013-1-25,37.9,27.9,20.4,36.6,20.5,3.5,98,76,44,30.43,30.12,14,1,14,0.06
2013-1-26,44.2,34.3,28.8,35.1,25.9,17.7,96,73,37,30.36,30.17,13,1,13,0.00
2013-1-27,46.7,34.6,25.7,33.1,26.4,19.9,89,73,52,30.50,30.36,7,1,7,0.01
2013-1-28,64.6,48.4,35.7,47.0,39.5,30.7,89,72,48,30.44,30.22,9,1,9,0.00
2013-1-29,69.8,57.2,47.7,56.3,47.0,39.8,93,70,45,30.23,29.94,15,1,15,0.00
2013-1-30,60.7,55.3,42.2,58.1,53.1,39.0,98,92,84,29.94,29.42,23,3,23,2.91
2013-1-31,42.5,31.2,26.2,39.8,23.9,18.6,92,75,51,30.04,29.49,19,2,19,0.03
2013-2-1,36.8,23.2,15.8,29.5,14.1,7.2,94,68,53,30.41,29.96,20,2,20,0.00
2013-2-2,37.7,28.0,17.7,31.1,19.7,8.3,97,72,43,30.42,30.08,6,0,6,0.02
2013-2-3,36.7,31.0,25.7,30.4,26.3,19.7,93,83,66,30.12,29.96,16,1,16,0.03
2013-2-4,49.1,34.3,22.5,29.7,23.7,18.5,87,68,36,30.16,30.00,10,1,10,0.02
2013-2-5,53.2,42.8,36.2,39.7,31.6,23.6,76,65,49,30.01,29.92,10,1,10,0.00
2013-2-6,56.3,43.7,33.9,36.4,27.5,18.1,86,57,24,30.22,30.01,5,1,8,0.00
2013-2-7,45.5,40.6,37.4,39.6,32.2,24.4,98,74,50,30.23,29.98,2,0,3,0.28
2013-2-8,47.4,39.0,30.9,42.0,35.9,26.5,99,89,63,30.18,29.91,21,1,21,0.04
2013-2-9,54.6,37.6,25.8,29.3,24.9,20.3,91,64,28,30.35,30.15,10,1,10,0.00
2013-2-10,50.7,44.0,40.4,46.2,26.6,15.5,94,54,25,30.35,30.09,27,2,27,0.26
2013-2-11,53.5,48.8,42.0,51.1,43.8,25.9,97,84,51,30.12,29.99,16,1,16,0.02
2013-2-12,50.4,41.0,33.4,37.1,29.1,19.5,96,65,33,30.14,29.91,11,1,11,0.13
2013-2-13,46.7,39.0,32.9,42.1,36.4,29.3,97,91,79,29.92,29.63,19,1,19,0.07
2013-2-14,51.4,37.8,28.2,30.6,27.0,22.0,88,68,35,30.07,29.92,13,1,13,0.00
2013-2-15,55.5,39.8,31.6,36.7,31.1,27.1,91,73,38,30.10,29.95,15,1,15,0.08
2013-2-16,31.5,27.1,20.4,27.5,21.4,10.7,91,79,54,30.05,29.89,18,2,18,0.00
2013-2-17,33.7,23.4,17.4,14.6,10.5,6.3,74,58,37,30.32,30.04,19,2,19,0.00
2013-2-18,50.7,36.0,21.9,26.3,20.2,12.2,80,54,34,30.41,30.17,14,1,14,0.00
2013-2-19,49.4,39.7,29.9,40.1,25.7,12.0,92,60,31,30.18,29.88,16,2,16,0.01
2013-2-20,42.7,31.6,25.1,16.4,9.7,-0.9,61,42,17,30.21,30.07,13,1,13,0.00
2013-2-21,60.4,39.2,23.2,37.1,16.6,6.8,94,46,13,30.26,30.09,7,1,7,0.15
2013-2-22,44.6,40.5,35.7,41.8,37.0,29.0,96,87,71,30.23,30.04,11,1,11,0.23
2013-2-23,54.2,45.6,38.6,50.5,43.2,36.0,99,92,67,30.08,29.82,8,0,8,0.28
2013-2-24,53.9,42.4,34.5,40.5,29.7,18.3,92,64,28,30.05,29.85,15,1,15,0.00
2013-2-25,49.5,38.7,31.8,32.3,26.6,20.9,80,62,43,30.10,29.96,8,0,8,0.00
2013-2-26,52.2,42.8,36.4,46.4,39.8,30.9,98,89,78,29.97,29.51,21,2,21,0.55
2013-2-27,54.4,40.4,34.1,36.0,31.7,27.6,91,72,45,29.80,29.62,15,2,15,0.04
2013-2-28,34.5,30.3,28.3,32.0,25.8,23.1,91,83,76,29.96,29.73,14,2,14,0.00
2013-3-1,33.1,29.8,27.6,28.7,27.0,24.7,94,89,83,30.00,29.92,8,1,8,0.00
2013-3-2,33.9,29.1,23.8,28.3,25.4,19.1,93,86,72,30.00,29.89,11,1,11,0.00
2013-3-3,27.8,23.2,20.0,20.1,16.7,14.2,88,76,60,30.12,29.98,13,1,13,0.00
2013-3-4,51.6,33.5,19.1,26.9,15.4,1.8,86,53,14,30.22,30.09,9,1,9,0.01
2013-3-5,47.9,41.2,30.8,46.4,36.3,25.0,98,84,55,30.10,29.63,18,1,18,0.95
2013-3-6,30.6,25.7,22.8,28.0,23.0,19.4,93,89,81,30.24,29.69,11,2,21,0.00
2013-3-7,37.9,29.4,25.0,32.1,25.1,22.0,92,84,71,30.36,30.23,14,1,14,0.01
2013-3-8,48.4,33.2,22.2,28.3,24.1,20.7,95,72,40,30.41,30.31,13,1,13,0.00
2013-3-9,64.3,45.3,30.0,30.4,24.6,19.0,81,48,24,30.36,30.22,9,1,9,0.00
2013-3-10,63.9,52.5,45.3,34.4,30.3,26.0,55,43,30,30.24,30.08,17,2,17,0.00
2013-3-11,53.8,50.0,47.4,49.3,45.5,33.7,97,85,51,30.11,29.79,20,3,20,0.70
2013-3-12,51.5,41.5,34.7,50.1,36.6,31.0,97,84,52,30.05,29.74,16,2,16,0.39
2013-3-13,40.0,33.6,26.4,31.8,24.5,14.6,89,70,46,30.23,30.04,18,2,18,0.00
2013-3-14,42.9,30.3,21.2,19.1,15.3,12.0,77,56,31,30.34,30.21,14,2,14,0.00
2013-3-15,67.2,47.2,30.8,41.4,30.4,14.7,81,55,23,30.27,29.93,12,1,14,0.00
2013-3-16,75.2,60.7,51.0,46.1,42.9,40.3,70,53,32,29.93,29.70,17,1,17,0.00
2013-3-17,72.3,60.5,49.7,47.6,44.9,41.5,81,58,34,29.90,29.77,13,1,13,0.00
2013-3-18,50.0,45.1,42.1,44.8,42.5,38.9,97,90,82,29.95,29.78,11,1,11,0.62
2013-3-19,53.0,42.3,34.4,44.9,29.6,13.8,99,66,30,30.09,29.84,19,2,19,0.02
2013-3-20,50.9,37.5,28.4,29.3,15.9,6.5,91,45,20,30.12,29.85,18,1,18,0.00
2013-3-21,33.6,25.1,18.1,24.3,13.6,9.2,84,62,41,30.02,29.84,16,1,16,0.01
2013-3-22,42.9,31.9,20.8,28.6,13.9,2.4,81,52,19,30.11,30.02,8,0,8,0.00
2013-3-23,52.7,42.2,33.9,42.2,34.4,22.0,91,74,55,30.07,29.83,8,0,8,0.00
2013-3-24,45.3,41.3,36.3,42.8,39.4,34.6,98,93,75,29.88,29.47,11,1,11,0.94
2013-3-25,36.5,29.6,25.9,35.7,25.1,20.9,97,83,69,29.95,29.51,18,2,18,0.01
2013-3-26,33.6,27.6,24.5,27.4,24.5,22.2,95,88,77,30.27,29.95,14,1,14,0.00
2013-3-27,39.7,30.6,25.9,27.7,24.1,20.2,92,78,55,30.35,30.24,15,1,15,0.17
2013-3-28,48.6,34.6,25.8,28.6,23.3,19.2,87,66,36,30.37,30.27,12,1,12,0.01
2013-3-29,51.7,37.8,30.8,37.4,27.8,12.6,96,71,23,30.36,30.26,17,0,17,0.13
2013-3-30,59.7,47.1,38.0,44.0,39.1,36.0,99,77,45,30.27,30.03,10,1,10,0.21
2013-3-31,59.8,50.5,45.0,50.4,47.3,39.5,98,89,66,30.03,29.82,10,1,10,0.55
2013-4-1,58.1,47.9,39.7,46.2,39.9,29.7,95,75,51,30.01,29.85,14,1,15,0.00
2013-4-2,53.3,42.1,32.2,32.3,23.6,12.4,83,52,20,30.17,30.00,11,1,13,0.00
2013-4-3,58.2,43.6,30.5,27.9,21.2,9.4,68,43,15,30.26,30.16,10,1,10,0.00
2013-4-4,44.2,37.2,33.5,34.6,30.1,16.3,98,79,35,30.23,29.98,5,0,6,0.49
2013-4-5,56.1,42.6,34.9,43.3,36.9,34.4,98,83,48,30.11,29.97,12,1,12,0.00
2013-4-6,65.7,51.0,38.6,36.4,32.9,27.1,82,54,26,30.22,30.11,12,2,13,0.00
2013-4-7,68.2,55.8,44.3,43.6,38.0,30.8,70,52,35,30.17,30.03,14,2,14,0.00
2013-4-8,72.9,61.1,51.9,49.8,46.6,42.3,75,60,43,30.10,30.00,13,2,13,0.00
2013-4-9,60.3,56.8,55.3,50.3,49.4,49.0,81,76,67,30.12,30.06,4,1,4,0.00
2013-4-10,72.1,68.3,65.0,54.3,53.8,53.1,66,60,53,29.89,29.87,10,2,10,0.00
2013-4-11,75.8,65.5,57.9,61.0,53.7,48.2,95,67,41,29.89,29.60,15,2,15,1.23
2013-4-12,63.5,57.3,46.6,58.4,49.1,36.2,97,76,41,29.86,29.56,15,2,15,0.95
2013-4-13,67.2,52.8,43.2,38.4,34.8,19.2,81,55,19,30.05,29.85,16,2,16,0.00
2013-4-14,67.3,56.5,47.2,46.9,37.3,31.0,75,50,30,30.06,29.92,18,2,18,0.00
2013-4-15,69.5,58.3,51.0,54.4,51.3,44.9,95,79,55,30.14,29.91,14,2,14,0.01
2013-4-16,80.3,65.2,55.5,55.8,54.2,51.8,89,70,40,30.23,30.10,11,2,11,0.00
2013-4-17,72.3,63.5,58.0,61.1,56.9,53.8,96,80,58,30.19,30.06,11,1,15,0.15
2013-4-18,71.7,65.1,59.6,58.4,55.6,52.0,89,72,54,30.07,29.86,17,2,17,0.00
2013-4-19,65.1,57.2,40.7,60.4,53.7,34.7,96,88,79,29.92,29.66,18,3,18,0.57
2013-4-20,56.1,42.9,31.9,36.0,29.5,24.0,89,62,31,30.30,29.92,18,2,18,0.00
2013-4-21,59.2,47.2,36.8,37.0,31.4,26.7,77,57,32,30.42,30.30,13,1,13,0.00
2013-4-22,64.6,49.3,37.7,40.3,36.2,33.3,88,63,36,30.38,30.16,10,1,10,0.00
2013-4-23,72.3,54.3,39.3,44.0,36.8,27.4,77,54,20,30.25,30.05,13,1,13,0.00
2013-4-24,68.2,57.5,47.4,56.9,48.4,43.7,94,73,46,30.10,29.94,14,2,14,0.10
2013-4-25,64.8,49.6,38.8,43.9,32.6,13.4,90,60,15,30.33,30.08,11,1,11,0.00
2013-4-26,66.5,52.2,37.7,46.7,33.3,27.9,86,51,28,30.40,30.25,11,1,11,0.01
2013-4-27,54.1,50.4,48.4,50.0,47.3,41.7,97,89,71,30.35,30.20,7,0,7,0.61
2013-4-28,51.4,49.7,45.9,50.8,47.5,42.5,98,92,76,30.23,29.97,14,1,14,1.14
2013-4-29,73.2,58.2,49.6,55.8,50.8,45.9,98,80,41,30.05,29.90,8,1,8,0.05
2013-4-30,74.4,60.8,50.4,56.6,52.4,46.6,98,77,41,30.10,29.93,11,1,11,0.00
2013-5-1,65.5,57.7,50.6,53.5,50.5,47.6,95,78,54,30.21,30.10,9,1,9,0.00
2013-5-2,65.0,57.2,52.6,53.5,51.0,47.6,91,80,63,30.22,30.15,11,1,11,0.00
2013-5-3,62.4,55.4,49.6,50.3,47.1,38.9,92,75,43,30.17,30.01,14,2,14,0.00
2013-5-4,57.5,52.3,47.0,48.0,43.9,28.9,96,73,48,30.03,29.89,16,2,16,0.20
2013-5-5,56.2,51.0,48.5,50.3,48.4,46.7,97,91,76,29.91,29.75,19,2,19,1.42
2013-5-6,63.7,54.4,46.2,49.8,45.9,37.7,97,76,39,29.87,29.75,11,2,11,0.30
2013-5-7,61.2,50.6,42.4,51.5,45.3,40.2,96,83,54,29.95,29.83,11,1,11,0.07
2013-5-8,62.2,54.8,50.2,55.1,52.1,48.9,98,91,72,30.03,29.91,8,0,8,0.07
2013-5-9,77.0,60.4,46.8,56.1,51.0,45.4,99,75,38,30.10,30.00,9,1,9,0.00
2013-5-10,70.7,59.1,55.1,56.7,52.5,50.0,89,79,57,30.08,30.00,8,0,8,0.00
2013-5-14,72.2,62.1,58.4,49.4,48.0,44.5,71,61,37,30.08,30.06,3,0,3,0.00
2013-5-15,84.0,68.6,57.5,55.0,51.0,43.9,78,56,25,30.11,29.93,11,1,11,0.00
2013-5-16,75.1,67.0,59.7,56.2,52.3,48.9,76,60,43,30.00,29.92,10,0,10,0.00
2013-5-17,78.0,66.9,57.0,60.9,55.6,52.5,88,69,47,30.06,29.97,9,1,9,0.00
2013-5-18,64.7,61.8,59.0,61.2,59.1,54.8,97,91,71,30.04,29.99,5,0,5,0.92
2013-5-19,74.5,63.9,60.2,66.2,61.4,58.8,98,92,68,30.07,29.96,9,0,9,0.12
2013-5-20,82.4,67.2,58.0,66.1,61.4,56.6,99,84,45,30.07,29.97,7,0,7,0.01
2013-5-21,86.2,69.2,58.4,68.0,61.5,55.5,99,79,40,30.01,29.87,11,0,11,0.09
2013-5-22,77.8,65.9,59.7,66.7,62.0,58.4,98,88,58,29.94,29.81,6,0,6,0.05
2013-5-23,57.5,56.7,56.1,55.9,55.2,54.3,95,94,94,29.91,29.91,2,0,2,0.11
2013-5-24,63.6,55.5,48.2,54.3,46.2,37.2,96,73,41,30.21,29.89,17,1,17,0.02
2013-5-25,75.7,55.4,42.3,45.2,38.7,31.8,83,57,24,30.31,30.18,12,1,12,0.00
2013-5-26,74.0,60.0,50.4,50.4,45.9,38.7,86,62,33,30.25,30.15,8,0,8,0.00
2013-5-27,77.2,64.1,52.2,58.7,52.8,46.4,91,68,49,30.23,30.09,10,1,10,0.00
2013-5-28,78.6,68.4,61.9,61.6,57.7,54.8,86,70,47,30.16,30.07,9,1,9,0.00
2013-5-29,83.2,69.0,58.4,62.2,58.1,52.0,92,71,37,30.18,30.08,9,1,9,0.00
2013-5-30,75.7,65.9,61.2,61.0,58.8,57.1,90,79,59,30.21,30.09,8,0,8,0.00
2013-5-31,78.7,69.7,63.7,61.0,59.2,55.7,88,70,49,30.16,30.05,10,1,11,0.00
2013-6-1,80.0,70.7,64.0,62.6,60.5,57.3,89,72,50,30.06,29.95,11,1,11,0.01
2013-6-2,70.4,64.1,62.0,67.1,62.7,61.2,98,95,81,30.00,29.85,6,0,6,1.15
2013-6-3,77.0,66.4,60.1,64.1,60.7,57.4,99,84,56,29.94,29.84,10,0,11,0.00
2013-6-4,78.7,66.6,57.5,64.3,59.6,56.1,97,80,49,30.02,29.92,8,0,8,0.00
2013-6-5,78.3,67.7,59.5,66.9,61.7,58.1,97,82,59,30.04,29.88,12,1,12,0.26
2013-6-6,75.2,66.9,62.0,66.9,63.8,61.1,98,90,71,29.93,29.72,5,0,6,0.03
2013-6-7,78.6,66.8,59.6,67.9,63.5,58.5,98,90,63,29.79,29.63,6,0,8,0.38
2013-6-8,78.0,65.2,57.7,65.6,60.6,57.1,99,86,53,30.06,29.79,5,0,6,0.26
2013-6-9,76.5,66.4,61.2,70.5,63.5,58.9,98,91,70,30.10,29.98,9,0,9,0.78
2013-6-10,75.3,66.7,62.8,66.3,63.1,58.5,98,89,63,30.00,29.84,10,0,10,0.48
2013-6-11,81.3,68.0,61.5,64.6,61.6,58.4,98,82,48,29.99,29.90,11,1,11,0.10
2013-6-12,86.0,73.3,64.5,73.0,66.7,61.1,93,81,58,30.00,29.88,12,0,12,0.00
2013-6-13,86.6,70.5,64.2,71.0,64.6,60.9,94,82,54,29.89,29.66,9,0,9,0.04
2013-6-14,77.0,63.6,54.6,62.3,55.5,51.0,97,77,46,30.04,29.77,11,1,11,0.00
2013-6-15,81.8,66.0,54.8,61.9,55.6,49.5,93,71,42,30.12,30.02,7,0,7,0.00
2013-6-16,82.9,69.4,60.6,67.8,62.0,57.8,93,78,47,30.09,29.96,4,0,4,0.00
2013-6-17,78.1,68.7,62.7,69.4,65.3,61.5,98,90,67,30.00,29.89,5,0,5,0.26
2013-6-18,73.3,65.8,60.4,69.0,64.3,59.3,97,95,84,29.91,29.76,7,0,7,0.39
2013-6-19,77.5,64.5,56.5,67.4,61.3,55.9,99,90,64,30.09,29.90,5,0,5,0.26
2013-6-20,77.7,65.9,58.1,67.1,61.7,57.2,99,87,63,30.19,30.08,7,0,7,0.00
2013-6-21,81.3,66.8,60.4,68.2,62.1,58.8,96,86,53,30.22,30.12,4,0,4,0.14
2013-6-22,81.7,67.5,57.4,65.7,60.5,55.9,96,80,47,30.22,30.07,7,0,7,0.00
2013-6-23,81.5,69.5,62.0,70.1,63.4,59.1,96,82,56,30.17,30.07,5,0,5,0.00
2013-6-24,83.6,71.2,62.4,70.7,65.3,61.0,97,83,54,30.17,30.04,6,0,6,0.00
2013-6-25,83.7,69.8,62.5,70.6,65.3,61.3,97,86,59,30.09,29.96,7,0,7,0.01
2013-6-26,82.3,70.2,62.9,72.3,66.2,61.8,98,88,64,30.01,29.87,7,0,7,0.05
2013-6-27,82.2,68.9,60.9,73.5,65.7,59.9,98,90,67,29.91,29.75,16,0,16,0.16
2013-6-28,82.8,71.5,62.4,72.6,66.6,61.5,98,85,60,29.75,29.58,7,0,7,0.32
2013-6-29,82.3,67.9,60.4,66.2,60.9,53.9,99,81,40,29.68,29.60,7,0,8,0.00
2013-6-30,82.8,68.0,60.3,66.5,60.7,55.8,98,79,43,29.77,29.65,6,0,6,0.44
2013-7-1,74.1,66.2,62.3,68.6,64.3,61.4,98,94,76,29.91,29.75,7,0,7,1.39
2013-7-2,79.0,68.5,61.9,70.4,64.8,61.3,99,89,62,30.08,29.90,9,1,9,0.18
2013-7-3,72.4,65.5,59.7,69.5,64.0,59.1,99,95,84,30.19,30.04,7,0,7,2.27
2013-7-4,74.3,64.9,59.9,69.2,63.9,59.6,100,97,80,30.18,30.11,7,0,9,1.28
2013-7-5,76.3,68.7,65.1,69.6,65.3,63.4,98,89,72,30.19,30.12,9,1,9,0.07
2013-7-6,78.8,69.2,64.1,70.2,66.4,63.5,99,91,67,30.16,30.05,8,1,8,1.13
2013-7-7,75.3,68.5,66.0,71.1,67.2,65.5,99,96,81,30.12,30.04,4,0,5,0.88
2013-7-8,85.5,70.7,64.0,70.9,65.3,61.1,99,85,48,30.16,30.06,5,0,6,0.05
2013-7-9,78.0,67.7,64.1,71.2,66.0,63.2,99,95,76,30.13,30.08,5,0,5,0.00
2013-7-26,79.0,72.3,68.5,67.4,65.8,64.2,90,81,63,30.00,29.96,7,1,7,0.00
2013-7-27,75.7,68.6,64.9,70.2,65.9,63.1,99,91,70,29.99,29.83,5,0,5,0.68
2013-7-28,78.1,67.9,62.5,68.2,63.6,60.0,99,87,62,30.00,29.86,7,0,7,0.01
2013-7-29,81.5,66.0,57.4,63.6,56.4,47.5,96,74,38,30.17,29.99,9,0,9,0.00
2013-7-30,77.3,66.1,57.9,68.1,59.8,51.4,92,81,53,30.20,30.11,5,0,5,0.00
2013-7-31,70.8,66.4,62.2,67.3,64.9,61.3,99,95,86,30.15,29.93,8,0,8,0.24
2013-8-1,78.3,69.3,64.9,70.1,65.9,61.0,99,89,68,29.95,29.88,7,0,8,0.01
2013-8-2,82.3,68.6,59.7,69.6,63.4,58.8,99,85,54,30.01,29.91,5,0,5,0.00
2013-8-3,66.2,65.3,64.2,64.3,63.8,63.2,97,95,91,30.00,29.97,0,0,0,0.00
2013-8-5,79.8,70.5,59.6,68.0,63.7,57.9,96,80,61,30.03,29.92,6,1,6,0.00
2013-8-6,80.8,70.2,63.2,70.2,65.3,59.1,98,86,58,29.99,29.91,6,0,6,0.04
2013-8-7,72.9,68.8,66.6,68.5,66.6,65.3,97,93,84,30.00,29.95,7,0,7,0.11
2013-8-8,79.9,70.3,64.8,70.9,67.7,63.9,99,92,72,30.02,29.96,6,0,6,0.18
2013-8-9,81.0,70.7,66.4,74.1,69.0,65.0,98,94,72,30.04,29.97,4,0,4,0.17
2013-8-10,74.7,69.0,66.9,71.6,68.2,66.3,99,97,86,30.08,30.02,4,0,4,0.00
2013-8-11,83.2,71.7,63.6,73.5,68.8,63.3,100,91,65,30.12,30.02,5,0,5,0.31
2013-8-12,81.0,70.5,65.6,73.9,68.5,65.0,99,94,68,30.07,29.93,5,0,5,0.03
2013-8-13,79.9,69.5,65.3,73.6,67.1,64.1,99,92,67,29.95,29.81,6,0,6,0.37
2013-8-14,73.2,66.5,59.5,65.0,60.3,56.4,97,81,60,30.03,29.85,7,0,7,0.00
2013-8-15,69.6,61.3,56.0,61.0,57.2,54.9,97,87,70,30.10,30.01,6,0,6,0.00
2013-8-16,73.7,64.9,58.0,62.7,58.5,55.6,93,80,61,30.11,30.03,5,0,5,0.00
2013-8-17,68.5,61.3,57.0,62.6,58.1,55.0,96,89,79,30.15,30.07,4,0,4,0.00
2013-8-18,75.5,67.3,61.2,69.3,64.7,60.9,99,92,71,30.18,30.09,5,0,5,0.16
2013-8-19,72.1,65.9,61.9,68.2,64.2,61.5,99,95,79,30.16,30.05,3,0,3,0.68
2013-8-20,79.6,67.7,61.5,70.5,65.2,60.9,99,92,70,30.16,30.07,4,0,4,0.00
2013-8-21,72.4,67.6,64.0,69.2,65.8,63.1,98,94,86,30.19,30.08,3,0,3,0.01
2013-8-22,82.8,70.0,62.4,69.6,65.4,62.1,99,87,56,30.14,30.00,8,0,8,0.00
2013-8-23,81.0,69.1,63.0,70.0,65.3,62.4,99,89,65,30.05,29.94,8,0,8,0.00
2013-8-24,76.3,66.1,60.6,65.6,61.1,55.1,98,85,57,30.26,30.05,7,0,7,0.00
2013-8-25,76.2,63.1,54.8,63.0,56.8,51.3,92,81,54,30.36,30.25,5,0,5,0.00
2013-8-26,80.1,67.3,55.5,65.9,61.3,54.1,97,82,57,30.31,30.12,6,1,6,0.00
2013-8-27,79.3,67.9,61.6,69.6,64.3,60.0,97,89,70,30.14,30.01,8,0,8,0.00
2013-8-28,83.9,72.1,66.1,73.0,67.4,64.6,96,86,63,30.03,29.92,6,0,6,0.00
2013-8-29,84.0,75.7,69.0,73.5,70.2,67.8,96,84,67,29.94,29.87,7,1,7,0.02
2013-8-31,81.5,72.6,66.9,75.0,69.9,66.3,98,91,74,29.93,29.81,6,0,6,0.22
2013-9-1,82.7,70.5,65.5,74.0,67.3,64.6,98,90,65,29.88,29.77,9,0,9,0.20
2013-9-2,80.8,70.1,63.4,71.9,66.5,63.1,99,89,65,29.90,29.79,6,0,6,0.00
2013-9-3,79.7,68.0,60.7,68.6,63.7,59.8,98,87,59,29.97,29.81,11,0,11,0.44
2013-9-4,74.8,67.1,62.6,65.6,61.9,59.8,93,84,70,30.09,29.97,2,0,2,0.00
2013-9-5,80.0,66.6,59.3,67.8,61.4,55.8,98,84,60,30.13,30.06,6,0,7,0.00
2013-9-6,80.0,65.5,56.6,66.1,60.0,55.2,97,84,53,30.16,30.04,5,0,5,0.00
2013-9-7,78.4,64.0,58.0,65.1,60.6,57.2,99,90,58,30.10,29.98,4,0,4,0.00
2013-9-8,77.8,68.6,63.4,68.3,64.6,61.2,95,88,64,29.99,29.92,6,0,6,0.00
2013-9-9,77.7,70.7,64.6,68.6,65.1,62.6,94,83,70,30.10,29.99,4,0,4,0.00
2013-9-10,80.6,71.7,67.8,67.3,65.4,62.5,91,81,64,30.19,30.10,6,0,6,0.00
2013-9-11,79.8,69.5,62.2,71.1,65.8,60.6,98,88,70,30.20,30.05,7,0,7,0.26
2013-9-12,74.6,68.5,64.4,70.1,66.6,63.8,99,94,80,30.08,29.85,12,0,12,0.45
2013-9-13,70.3,60.0,54.8,56.4,51.7,48.6,86,75,53,29.91,29.82,7,0,7,0.04
2013-9-14,73.8,60.3,49.5,60.0,53.2,47.4,96,79,48,30.09,29.90,5,0,5,0.00
2013-9-15,72.8,61.9,54.4,62.7,56.2,52.2,94,83,62,30.18,30.08,6,1,6,0.00
2013-9-16,76.8,64.7,56.6,63.2,58.7,54.7,97,82,48,30.14,30.07,7,0,7,0.00
2013-9-17,69.0,61.5,56.7,58.6,55.6,53.7,94,82,65,30.23,30.14,7,0,7,0.00
2013-9-18,64.8,59.3,53.9,58.9,55.5,51.0,97,87,74,30.24,30.14,4,0,4,0.06
2013-9-19,76.2,64.2,58.0,67.2,61.3,57.4,99,91,67,30.17,30.06,6,0,6,0.00
2013-9-20,82.2,67.3,58.4,67.6,62.6,57.7,99,86,51,30.06,29.88,6,0,6,0.00
2013-9-21,65.6,61.8,57.4,63.2,60.5,56.8,99,96,89,29.89,29.67,7,0,7,1.21
2013-9-22,70.8,58.2,51.4,59.7,54.3,50.9,99,88,59,29.91,29.73,8,0,8,0.02
2013-9-23,74.0,58.9,51.0,61.8,54.7,50.1,99,87,53,30.03,29.91,3,0,4,0.00
2013-9-24,76.5,62.1,54.0,62.8,57.4,52.0,97,86,56,30.04,29.88,5,0,5,0.00
2013-9-25,61.4,59.1,57.0,60.4,58.0,56.4,99,96,92,29.90,29.81,3,0,3,0.57
2013-9-26,70.2,60.4,56.5,63.3,58.4,55.3,99,94,71,30.02,29.86,5,0,5,0.01
2013-9-27,56.4,53.1,50.7,55.6,52.5,50.2,99,98,96,30.14,30.02,1,0,1,0.00
2013-9-28,67.3,59.9,51.9,58.7,55.4,50.8,98,86,71,30.22,30.11,4,0,4,0.00
2013-9-29,64.7,55.0,51.0,56.7,52.1,49.5,96,90,75,30.14,30.06,6,0,6,0.00
2013-9-30,65.8,62.2,55.3,59.9,56.9,53.9,96,83,73,30.07,29.98,5,0,5,0.00
2013-10-2,64.0,61.6,60.3,59.9,58.3,56.6,94,89,85,30.12,30.07,0,0,0,0.00
2013-10-3,79.2,64.6,57.8,64.7,59.7,56.7,97,85,50,30.13,30.03,4,0,4,0.00
2013-10-4,76.2,64.5,57.2,66.7,61.0,56.4,98,89,62,30.14,30.05,3,0,5,0.00
2013-10-5,79.3,67.7,57.4,66.2,62.1,56.8,99,84,57,30.13,30.00,6,0,6,0.00
2013-10-6,74.8,67.6,63.3,63.5,61.1,59.7,90,80,62,30.03,29.84,9,1,9,0.00
2013-10-7,61.4,56.7,51.6,56.2,52.8,49.3,99,87,73,29.99,29.83,11,1,11,1.20
2013-10-8,67.0,52.0,43.6,55.8,48.1,43.1,99,88,58,30.17,30.01,5,0,5,1.20
2013-10-9,71.8,59.9,45.8,59.2,52.8,45.0,97,79,53,30.23,30.10,7,1,7,0.00
2013-10-10,69.3,56.6,47.8,56.4,50.7,45.8,96,82,52,30.13,30.02,9,0,9,0.00
2013-10-11,73.2,61.1,50.1,57.1,53.5,49.3,99,78,46,30.05,29.95,9,0,9,0.00
2013-10-12,66.5,60.1,53.7,59.7,55.7,50.4,93,85,73,30.08,29.98,6,0,6,0.00
2013-10-13,70.0,61.4,56.7,62.0,58.8,56.0,98,91,74,30.18,30.08,6,0,6,0.02
2013-10-14,67.5,60.7,54.7,61.2,58.5,53.6,98,93,78,30.20,30.10,4,0,4,0.00
2013-10-15,67.8,58.1,52.3,58.9,54.7,51.2,98,89,71,30.15,30.02,7,0,7,0.00
2013-10-16,58.4,55.6,52.8,56.4,52.3,49.0,93,89,84,30.05,29.95,1,0,1,0.01
2013-10-17,60.4,57.9,57.5,59.8,57.0,56.2,98,97,93,29.96,29.88,1,0,1,0.05
2013-10-21,57.4,53.6,51.6,50.7,49.4,48.3,90,86,78,30.02,29.99,2,0,2,0.00
2013-10-22,65.8,54.9,48.6,50.9,47.6,44.2,93,78,49,30.00,29.79,8,0,8,0.00
2013-10-23,50.8,44.4,34.2,46.8,37.1,27.4,92,76,58,30.05,29.73,15,1,15,0.00
2013-10-24,48.2,40.3,31.3,37.2,32.9,26.9,91,75,59,30.21,30.04,7,0,7,0.01
2013-10-25,45.4,35.1,28.1,36.3,26.7,23.6,93,73,44,30.39,30.21,14,1,14,0.00
2013-10-26,56.6,40.7,28.3,39.1,28.3,23.2,89,65,30,30.38,30.11,6,0,6,0.00
2013-10-27,63.9,52.7,43.8,49.7,43.1,36.8,85,70,53,30.14,30.05,9,0,9,0.00
2013-10-28,53.3,52.8,52.4,51.6,51.0,50.6,94,94,93,30.25,30.23,0,0,0,0.04
2013-10-29,67.5,55.6,48.3,53.2,49.0,45.1,98,81,46,30.34,30.22,7,0,7,0.00
2013-10-30,72.9,61.4,55.1,56.2,52.8,49.4,86,74,51,30.26,30.13,8,0,8,0.00
2013-10-31,62.9,60.2,57.9,58.6,54.5,51.2,89,82,72,30.14,29.76,15,2,15,0.00
2013-11-1,73.6,61.3,52.2,55.5,49.9,44.0,96,68,40,29.77,29.61,8,1,8,0.16
2013-11-2,58.6,48.4,40.0,45.5,40.5,35.8,88,75,52,30.02,29.72,15,0,15,0.00
2013-11-3,55.4,43.9,36.7,37.2,35.2,32.2,93,74,45,30.35,30.02,11,1,11,0.00
2013-11-4,56.0,44.4,36.1,33.6,30.8,27.0,84,61,36,30.47,30.34,10,1,10,0.00
2013-11-5,60.4,47.0,34.8,47.2,27.6,17.0,85,52,20,30.49,30.40,7,0,7,0.00
2013-11-6,65.8,55.9,47.7,51.7,48.4,38.9,94,77,55,30.41,30.10,11,1,11,0.00
2013-11-7,55.3,47.7,34.8,54.2,43.6,30.8,98,86,70,30.18,29.98,12,1,13,0.07
2013-11-8,50.7,40.1,31.3,31.5,25.2,20.8,90,58,34,30.35,30.18,12,1,12,0.00
2013-11-9,53.3,43.4,34.6,31.5,25.7,20.6,68,51,33,30.36,30.24,5,0,5,0.00
2013-11-10,62.4,48.8,40.5,37.2,31.0,21.1,70,51,31,30.30,30.19,16,1,16,0.00
2013-11-11,63.9,46.5,33.9,30.6,26.1,19.3,73,48,18,30.32,30.16,6,0,6,0.00
2013-11-12,50.7,39.7,22.1,37.0,26.7,12.8,86,61,40,30.44,30.09,14,1,14,0.00
2013-11-13,40.2,30.9,18.1,20.5,17.2,12.8,84,58,40,30.61,30.52,12,1,12,0.00
2013-11-14,58.7,39.5,24.7,25.4,16.4,8.2,71,44,15,30.53,30.33,9,1,9,0.00
2013-11-15,51.5,44.4,35.9,48.5,32.1,9.6,97,65,32,30.34,30.16,7,0,7,0.13
2013-11-16,63.1,52.7,44.3,52.8,49.2,43.8,99,89,67,30.24,30.14,10,1,10,0.00
2013-11-17,59.9,57.0,55.4,56.9,54.3,51.3,98,91,81,30.17,29.85,12,1,12,0.23
2013-11-18,59.1,51.7,40.7,57.5,41.3,28.7,99,70,38,30.03,29.81,17,2,17,0.07
2013-11-19,51.2,39.4,32.2,30.9,26.3,17.9,78,61,28,30.23,30.03,13,1,13,0.00
2013-11-20,50.5,38.7,30.7,29.8,26.2,20.2,83,63,31,30.39,30.21,7,1,7,0.00
2013-11-21,52.6,51.9,50.9,51.5,50.7,49.8,97,96,95,30.40,30.37,9,0,9,0.01
2013-11-22,63.7,57.1,52.5,55.9,53.3,50.9,96,87,74,30.38,30.10,8,0,8,0.00
2013-11-23,54.2,44.1,28.5,52.4,40.3,20.0,95,87,70,30.24,30.07,11,1,11,0.00
2013-11-24,34.1,24.5,18.0,20.2,9.9,1.2,75,56,25,30.53,30.23,12,1,12,0.00
2013-11-25,39.4,29.9,20.1,16.0,7.2,-2.2,69,40,19,30.55,30.39,6,0,6,0.00
2013-11-26,48.1,41.0,35.6,47.3,40.1,33.6,99,97,91,30.31,29.67,12,1,12,1.93
2013-11-27,40.9,27.3,20.1,39.8,24.1,14.5,96,88,75,30.25,29.64,13,1,13,0.06
2013-11-28,45.5,29.3,15.8,29.4,21.2,13.4,91,73,41,30.52,30.25,4,0,4,0.11
2013-11-29,52.4,36.4,27.7,32.0,25.9,17.2,80,67,39,30.60,30.49,7,0,7,0.02
2013-11-30,48.9,35.2,27.1,27.4,25.2,22.9,88,69,38,30.60,30.39,6,0,6,0.00
2013-12-1,56.9,35.5,30.1,38.1,28.8,22.9,97,78,43,30.37,30.03,6,0,7,0.00
2013-12-2,55.6,39.6,34.0,40.8,34.4,31.0,91,82,55,30.03,29.80,6,0,6,0.00
2013-12-3,55.4,48.3,40.6,47.7,44.2,39.1,97,86,71,29.92,29.84,8,1,8,0.01
2013-12-4,64.4,54.7,46.8,53.6,49.9,45.3,97,84,66,30.02,29.91,13,1,13,0.00
2013-12-5,69.0,58.1,53.4,61.1,55.0,50.9,98,90,69,30.05,29.93,6,1,8,0.21
2013-12-6,69.3,61.6,50.9,61.5,59.9,49.3,98,94,75,30.01,29.86,14,1,14,0.42
2013-12-7,50.9,40.9,37.0,50.2,39.6,36.1,98,95,91,30.33,29.95,8,0,8,0.00
2013-12-8,45.7,41.7,37.1,45.1,40.1,36.3,99,94,85,30.31,30.15,10,1,10,0.14
2013-12-9,52.3,48.5,41.3,52.0,47.7,40.2,99,97,91,30.18,30.00,11,0,11,0.13
2013-12-10,48.7,37.2,24.7,46.8,35.1,21.6,99,92,77,30.35,29.90,13,1,13,0.28
2013-12-11,49.9,28.0,21.3,30.0,20.0,11.3,90,75,25,30.49,30.33,10,0,10,0.00
2013-12-12,35.9,28.1,23.4,21.6,16.5,7.2,84,63,31,30.46,30.36,12,1,12,0.00
2013-12-13,50.3,31.5,20.2,26.3,17.4,9.7,84,58,26,30.44,30.26,5,0,6,0.00
2013-12-14,47.1,42.4,39.1,44.9,35.5,17.8,99,78,39,30.28,29.76,14,1,14,0.43
2013-12-15,42.3,33.0,27.5,41.9,30.8,25.5,99,92,87,30.16,29.75,17,1,17,0.03
2013-12-16,52.4,32.9,26.7,34.2,27.8,24.8,95,83,42,30.25,30.14,6,0,6,0.01
2013-12-17,56.7,39.7,34.4,35.6,31.1,22.4,81,72,42,30.17,29.94,19,1,19,0.00
2013-12-18,45.6,33.5,24.9,23.2,15.3,4.3,80,50,21,30.33,30.10,13,1,13,0.00
2013-12-19,62.8,45.0,33.3,30.8,24.3,12.7,70,46,25,30.35,30.19,6,0,7,0.00
2013-12-20,64.2,51.1,41.2,46.2,28.7,19.8,83,42,31,30.20,30.07,6,1,8,0.00
2013-12-21,62.2,56.8,49.9,60.1,53.6,45.4,96,89,81,30.11,29.92,17,2,17,0.07
2013-12-22,62.6,57.2,53.5,60.4,55.9,52.4,99,96,86,30.02,29.89,19,1,19,2.38
2013-12-23,55.5,48.0,32.1,55.0,46.8,29.8,99,95,84,30.22,29.95,13,1,15,0.23
2013-12-24,32.0,26.1,18.2,29.9,21.5,15.0,92,83,70,30.46,30.21,12,1,12,0.00
2013-12-25,41.4,26.1,16.9,21.2,16.6,10.5,91,71,33,30.54,30.38,6,0,7,0.00
2013-12-26,46.5,33.1,24.0,25.2,22.4,18.1,86,67,39,30.42,30.31,10,0,11,0.00
2013-12-27,50.1,36.0,26.4,28.8,23.0,18.9,86,61,32,30.50,30.37,7,0,9,0.00
2013-12-28,49.5,38.4,29.7,41.6,28.7,18.8,98,71,31,30.44,30.07,5,0,6,0.26
2013-12-29,48.1,42.3,37.5,44.9,40.0,34.3,99,92,79,30.07,29.82,10,1,12,0.20
2013-12-30,41.7,37.3,31.6,38.1,34.4,28.7,95,89,82,30.18,30.00,10,0,10,0.00
2013-12-31,36.9,31.2,27.0,30.1,22.5,18.8,91,71,50,30.41,30.15,11,0,13,0.00
2014-1-1,45.1,35.0,27.3,28.0,23.1,17.2,80,63,44,30.40,30.13,6,1,9,0.00
2014-1-2,47.7,35.5,15.4,45.1,31.7,13.1,98,86,72,30.14,29.68,17,1,22,0.06